createdAt,value
2022-09-12T00:01:17.215Z,12.42
2022-09-12T00:03:44.681Z,12.28
2022-09-12T00:06:25.497Z,12.43
2022-09-12T00:08:55.475Z,12.34
2022-09-12T00:11:22.947Z,12.26
2022-09-12T00:13:50.354Z,12.25
2022-09-12T00:16:21.099Z,12.31
2022-09-12T00:18:48.956Z,12.18
2022-09-12T00:21:18.208Z,12.16
2022-09-12T00:23:46.237Z,12.16
2022-09-12T00:26:14.488Z,12.20
2022-09-12T00:28:42.324Z,12.19
2022-09-12T00:31:24.197Z,12.37
2022-09-12T00:33:53.280Z,12.22
2022-09-12T00:36:23.137Z,12.21
2022-09-12T00:38:51.535Z,12.18
2022-09-12T00:41:22.101Z,12.25
2022-09-12T00:43:53.126Z,12.23
2022-09-12T00:46:23.134Z,12.20
2022-09-12T00:49:14.980Z,12.27
2022-09-12T00:51:49.635Z,12.18
2022-09-12T00:54:22.434Z,12.20
2022-09-12T00:56:52.456Z,12.18
2022-09-12T00:59:27.812Z,12.20
2022-09-12T01:01:56.612Z,12.20
2022-09-12T01:04:28.561Z,12.27
2022-09-12T01:06:58.401Z,12.25
2022-09-12T01:09:26.620Z,12.19
2022-09-12T01:11:55.223Z,12.18
2022-09-12T01:14:22.762Z,12.18
2022-09-12T01:16:51.550Z,12.21
2022-09-12T01:19:32.112Z,12.37
2022-09-12T01:22:02.248Z,12.22
2022-09-12T01:24:51.912Z,12.36
2022-09-12T01:27:27.198Z,12.30
2022-09-12T01:30:17.899Z,12.29
2022-09-12T01:33:14.717Z,12.45
2022-09-12T01:36:20.869Z,12.45
2022-09-12T01:38:54.411Z,12.31
2022-09-12T01:41:33.829Z,12.36
2022-09-12T01:44:04.379Z,12.28
2022-09-12T01:46:37.386Z,12.24
2022-09-12T01:49:25.924Z,12.40
2022-09-12T01:52:23.418Z,12.38
2022-09-12T01:54:59.971Z,12.29
2022-09-12T01:57:56.694Z,12.32
2022-09-12T02:00:24.625Z,12.22
2022-09-12T02:03:11.892Z,12.32
2022-09-12T02:05:56.794Z,12.35
2022-09-12T02:08:41.685Z,12.39
2022-09-12T02:11:12.113Z,12.31
2022-09-12T02:13:48.223Z,12.36
2022-09-12T02:16:37.740Z,12.41
2022-09-12T02:19:24.535Z,12.42
2022-09-12T02:21:58.780Z,12.34
2022-09-12T02:24:32.061Z,12.36
2022-09-12T02:27:27.086Z,12.47
2022-09-12T02:29:54.740Z,12.32
2022-09-12T02:32:35.865Z,12.44
2022-09-12T02:35:35.830Z,12.42
2022-09-12T02:38:17.089Z,12.48
2022-09-12T02:40:44.720Z,12.40
2022-09-12T02:43:12.120Z,12.42
2022-09-12T02:45:39.696Z,12.42
2022-09-12T02:48:13.429Z,12.62
2022-09-12T02:50:42.334Z,12.54
2022-09-12T02:53:10.876Z,12.59
2022-09-12T02:55:40.472Z,12.63
2022-09-12T02:58:13.661Z,12.66
2022-09-12T03:00:51.458Z,12.78
2022-09-12T03:03:46.806Z,12.70
2022-09-12T03:06:51.199Z,12.70
2022-09-12T03:09:24.680Z,12.71
2022-09-12T03:12:07.199Z,12.78
2022-09-12T03:14:53.010Z,12.83
2022-09-12T03:17:35.609Z,12.82
2022-09-12T03:20:11.032Z,12.83
2022-09-12T03:22:54.027Z,12.96
2022-09-12T03:25:26.424Z,12.92
2022-09-12T03:28:20.757Z,13.04
2022-09-12T03:30:51.626Z,12.92
2022-09-12T03:33:21.891Z,12.98
2022-09-12T03:35:52.019Z,12.95
2022-09-12T03:38:20.264Z,13.00
2022-09-12T03:40:51.378Z,12.99
2022-09-12T03:43:22.076Z,13.00
2022-09-12T03:45:53.682Z,13.07
2022-09-12T03:48:21.527Z,13.02
2022-09-12T03:50:49.062Z,13.06
2022-09-12T03:53:17.361Z,13.07
2022-09-12T03:55:45.217Z,13.11
2022-09-12T03:58:12.867Z,13.15
2022-09-12T04:00:41.302Z,13.22
2022-09-12T04:03:09.450Z,13.28
2022-09-12T04:05:37.144Z,13.35
2022-09-12T04:08:04.796Z,13.37
2022-09-12T04:10:32.779Z,13.45
2022-09-12T04:13:00.146Z,13.48
2022-09-12T04:15:27.680Z,13.55
2022-09-12T04:17:55.395Z,13.62
2022-09-12T04:20:22.948Z,13.66
2022-09-12T04:22:50.364Z,13.73
2022-09-12T04:25:17.878Z,13.78
2022-09-12T04:27:45.335Z,13.85
2022-09-12T04:30:13.238Z,13.97
2022-09-12T04:32:41.673Z,14.05
2022-09-12T04:35:09.232Z,14.11
2022-09-12T04:37:36.655Z,14.17
2022-09-12T04:40:04.550Z,14.22
2022-09-12T04:42:32.293Z,14.30
2022-09-12T04:44:59.843Z,14.32
2022-09-12T04:47:27.396Z,14.40
2022-09-12T04:49:55.838Z,14.45
2022-09-12T04:52:23.248Z,14.42
2022-09-12T04:54:50.875Z,14.52
2022-09-12T04:57:18.332Z,14.58
2022-09-12T04:59:45.699Z,14.60
2022-09-12T05:02:13.324Z,14.67
2022-09-12T05:04:40.956Z,14.68
2022-09-12T05:07:08.465Z,14.75
2022-09-12T05:09:35.826Z,14.82
2022-09-12T05:12:05.540Z,14.88
2022-09-12T05:14:34.503Z,14.95
2022-09-12T05:17:02.866Z,15.02
2022-09-12T05:19:31.603Z,15.06
2022-09-12T05:21:59.403Z,15.08
2022-09-12T05:24:26.935Z,15.18
2022-09-12T05:26:54.450Z,15.26
2022-09-12T05:29:21.871Z,15.32
2022-09-12T05:31:52.460Z,15.37
2022-09-12T05:34:21.202Z,15.47
2022-09-12T05:36:48.846Z,15.49
2022-09-12T05:39:16.374Z,15.56
2022-09-12T05:41:43.708Z,15.56
2022-09-12T05:44:12.890Z,15.69
2022-09-12T05:46:44.485Z,15.76
2022-09-12T05:49:13.862Z,15.71
2022-09-12T05:51:44.007Z,15.83
2022-09-12T05:54:13.646Z,15.87
2022-09-12T05:56:43.477Z,15.98
2022-09-12T05:59:19.693Z,16.03
2022-09-12T06:01:48.094Z,16.03
2022-09-12T06:04:16.097Z,16.05
2022-09-12T06:06:45.420Z,16.14
2022-09-12T06:09:15.429Z,16.24
2022-09-12T06:11:43.944Z,16.33
2022-09-12T06:14:13.871Z,16.40
2022-09-12T06:16:41.545Z,16.52
2022-09-12T06:19:16.320Z,16.65
2022-09-12T06:21:44.427Z,16.77
2022-09-12T06:24:12.196Z,16.89
2022-09-12T06:26:39.675Z,16.94
2022-09-12T06:29:08.006Z,17.10
2022-09-12T06:31:38.189Z,17.19
2022-09-12T06:34:08.513Z,17.30
2022-09-12T06:36:41.830Z,17.42
2022-09-12T06:39:12.681Z,17.56
2022-09-12T06:41:43.666Z,17.68
2022-09-12T06:44:20.726Z,17.81
2022-09-12T06:46:48.553Z,17.99
2022-09-12T06:49:16.161Z,18.15
2022-09-12T06:51:43.654Z,18.31
2022-09-12T06:54:15.841Z,18.50
2022-09-12T06:56:45.054Z,18.74
2022-09-12T06:59:12.646Z,18.85
2022-09-12T07:01:42.258Z,18.91
2022-09-12T07:04:10.397Z,19.06
2022-09-12T07:06:40.920Z,19.15
2022-09-12T07:09:11.983Z,19.25
2022-09-12T07:11:41.936Z,19.31
2022-09-12T07:14:12.326Z,19.44
2022-09-12T07:16:40.491Z,19.50
2022-09-12T07:19:08.588Z,19.65
2022-09-12T07:21:40.465Z,19.71
2022-09-12T07:24:10.553Z,19.80
2022-09-12T07:26:40.242Z,19.90
2022-09-12T07:32:02.074Z,20.10
2022-09-12T07:34:29.435Z,20.08
2022-09-12T07:36:56.840Z,20.11
2022-09-12T07:39:24.391Z,20.08
2022-09-12T07:41:51.805Z,20.17
2022-09-12T07:44:19.211Z,20.25
2022-09-12T07:46:46.694Z,20.29
2022-09-12T07:49:14.128Z,20.28
2022-09-12T07:51:41.607Z,20.31
2022-09-12T07:54:09.844Z,20.34
2022-09-12T07:56:39.433Z,20.37
2022-09-12T07:59:08.385Z,20.40
2022-09-12T08:01:36.178Z,20.43
2022-09-12T08:04:05.409Z,20.43
2022-09-12T08:06:36.133Z,20.52
2022-09-12T08:09:05.380Z,20.54
2022-09-12T08:11:32.768Z,20.53
2022-09-12T08:14:02.024Z,20.57
2022-09-12T08:16:31.569Z,20.56
2022-09-12T08:19:01.038Z,20.58
2022-09-12T08:21:31.340Z,20.57
2022-09-12T08:24:01.321Z,20.59
2022-09-12T08:26:29.589Z,20.59
2022-09-12T08:28:57.023Z,20.51
2022-09-12T08:31:26.261Z,20.54
2022-09-12T08:33:57.043Z,20.59
2022-09-12T08:36:27.650Z,20.56
2022-09-12T08:38:59.880Z,20.56
2022-09-12T08:41:41.414Z,20.62
2022-09-12T08:44:20.934Z,20.48
2022-09-12T08:47:15.460Z,20.58
2022-09-12T08:49:57.780Z,20.46
2022-09-12T08:52:50.210Z,20.45
2022-09-12T08:55:27.905Z,20.39
2022-09-12T08:57:56.078Z,20.27
2022-09-12T09:00:23.968Z,20.29
2022-09-12T09:03:29.903Z,20.34
2022-09-12T09:06:34.324Z,20.39
2022-09-12T09:09:24.621Z,20.29
2022-09-12T09:12:13.494Z,20.38
2022-09-12T09:15:21.723Z,20.36
2022-09-12T09:17:54.906Z,20.28
2022-09-12T09:20:37.660Z,20.31
2022-09-12T09:23:31.704Z,20.28
2022-09-12T09:26:08.039Z,20.13
2022-09-12T09:28:53.409Z,20.06
2022-09-12T09:31:24.185Z,20.00
2022-09-12T09:33:56.672Z,19.98
2022-09-12T09:36:35.869Z,20.07
2022-09-12T09:39:09.436Z,19.96
2022-09-12T09:42:00.045Z,20.04
2022-09-12T09:44:30.479Z,19.87
2022-09-12T09:47:00.131Z,19.83
2022-09-12T09:49:31.562Z,19.77
2022-09-12T09:52:01.318Z,19.71
2022-09-12T09:54:53.527Z,19.77
2022-09-12T09:57:36.402Z,19.88
2022-09-12T10:00:37.106Z,19.92
2022-09-12T10:03:25.477Z,19.74
2022-09-12T10:05:55.435Z,19.65
2022-09-12T10:08:32.286Z,19.71
2022-09-12T10:11:08.117Z,19.59
2022-09-12T10:13:42.166Z,19.55
2022-09-12T10:16:20.989Z,19.52
2022-09-12T10:18:51.337Z,19.40
2022-09-12T10:21:36.093Z,19.57
2022-09-12T10:24:19.156Z,19.47
2022-09-12T10:26:53.259Z,19.71
2022-09-12T10:29:28.508Z,19.42
2022-09-12T10:31:59.079Z,19.33
2022-09-12T10:34:43.798Z,19.40
2022-09-12T10:37:42.188Z,19.17
2022-09-12T10:40:24.678Z,19.12
2022-09-12T10:42:56.922Z,18.95
2022-09-12T10:45:31.008Z,18.84
2022-09-12T10:48:06.772Z,18.65
2022-09-12T10:50:43.333Z,18.67
2022-09-12T10:53:22.936Z,18.61
2022-09-12T10:56:03.344Z,18.43
2022-09-12T10:59:07.393Z,18.45
2022-09-12T11:01:40.690Z,18.22
2022-09-12T11:04:29.467Z,18.21
2022-09-12T11:07:18.710Z,17.97
2022-09-12T11:10:01.546Z,17.75
2022-09-12T11:13:00.221Z,17.59
2022-09-12T11:15:33.052Z,17.47
2022-09-12T11:18:24.657Z,17.38
2022-09-12T11:21:10.131Z,17.28
2022-09-12T11:23:53.738Z,17.08
2022-09-12T11:26:49.388Z,17.21
2022-09-12T11:29:24.985Z,16.96
2022-09-12T11:32:18.744Z,17.02
2022-09-12T11:35:04.897Z,16.82
2022-09-12T11:37:32.335Z,16.82
2022-09-12T11:40:23.223Z,16.82
2022-09-12T11:42:55.845Z,16.78
2022-09-12T11:45:31.394Z,16.78
2022-09-12T11:48:04.678Z,16.66
2022-09-12T11:50:32.680Z,16.71
2022-09-12T11:53:15.457Z,16.82
2022-09-12T11:55:59.570Z,16.82
2022-09-12T11:58:29.558Z,16.61
2022-09-12T12:01:08.019Z,16.55
2022-09-12T12:03:43.846Z,16.54
2022-09-12T12:06:21.556Z,16.47
2022-09-12T12:08:50.901Z,16.27
2022-09-12T12:11:38.799Z,16.47
2022-09-12T12:14:32.671Z,16.64
2022-09-12T12:17:00.460Z,16.46
2022-09-12T12:19:37.064Z,16.54
2022-09-12T12:22:17.475Z,16.44
2022-09-12T12:25:21.398Z,16.57
2022-09-12T12:27:59.343Z,16.37
2022-09-12T12:30:29.796Z,16.35
2022-09-12T12:33:01.696Z,16.34
2022-09-12T12:36:00.101Z,16.43
2022-09-12T12:38:36.751Z,16.20
2022-09-12T12:41:19.183Z,16.30
2022-09-12T12:43:53.948Z,15.98
2022-09-12T12:46:27.311Z,16.10
2022-09-12T12:49:02.480Z,16.07
2022-09-12T12:51:50.034Z,16.04
2022-09-12T12:54:41.507Z,16.16
2022-09-12T12:57:45.819Z,16.15
2022-09-12T13:00:25.582Z,16.09
2022-09-12T13:02:59.988Z,15.91
2022-09-12T13:05:30.722Z,15.77
2022-09-12T13:08:12.146Z,15.84
2022-09-12T13:10:48.865Z,15.60
2022-09-12T13:13:26.048Z,15.69
2022-09-12T13:15:54.397Z,15.59
2022-09-12T13:18:29.794Z,15.70
2022-09-12T13:21:12.174Z,15.79
2022-09-12T13:23:40.017Z,15.60
2022-09-12T13:26:25.873Z,15.86
2022-09-12T13:29:23.355Z,15.83
2022-09-12T13:31:59.522Z,15.70
2022-09-12T13:34:47.879Z,15.79
2022-09-12T13:37:24.554Z,15.65
2022-09-12T13:40:13.566Z,15.68
2022-09-12T13:43:08.634Z,15.66
2022-09-12T13:45:39.709Z,15.46
2022-09-12T13:48:13.769Z,15.44
2022-09-12T13:50:51.297Z,15.37
2022-09-12T13:53:22.709Z,15.36
2022-09-12T13:55:58.288Z,15.38
2022-09-12T13:58:28.463Z,15.34
2022-09-12T14:01:12.695Z,15.37
2022-09-12T14:04:15.559Z,15.38
2022-09-12T14:06:51.107Z,15.35
2022-09-12T14:09:39.309Z,15.36
2022-09-12T14:12:20.838Z,15.29
2022-09-12T14:14:50.713Z,15.15
2022-09-12T14:17:24.374Z,15.16
2022-09-12T14:19:53.066Z,15.43
2022-09-12T14:22:20.601Z,15.11
2022-09-12T14:24:50.831Z,15.10
2022-09-12T14:27:25.967Z,15.16
2022-09-12T14:30:07.767Z,15.10
2022-09-12T14:32:38.545Z,15.02
2022-09-12T14:35:17.853Z,15.04
2022-09-12T14:37:51.227Z,15.06
2022-09-12T14:40:21.491Z,15.06
2022-09-12T14:42:51.206Z,14.98
2022-09-12T14:45:30.319Z,15.14
2022-09-12T14:47:59.277Z,14.92
2022-09-12T14:50:29.929Z,14.92
2022-09-12T14:53:17.195Z,15.07
2022-09-12T14:56:12.706Z,15.15
2022-09-12T14:58:41.748Z,14.96
2022-09-12T15:01:09.226Z,14.93
2022-09-12T15:03:57.524Z,15.13
2022-09-12T15:06:31.139Z,14.98
2022-09-12T15:09:02.975Z,15.01
2022-09-12T15:11:30.641Z,14.95
2022-09-12T15:13:58.049Z,14.92
2022-09-12T15:16:25.648Z,14.92
2022-09-12T15:18:53.137Z,14.82
2022-09-12T15:21:21.567Z,14.80
2022-09-12T15:23:52.633Z,14.96
2022-09-12T15:26:22.778Z,14.85
2022-09-12T15:28:51.239Z,14.88
2022-09-12T15:31:27.604Z,14.98
2022-09-12T15:33:56.516Z,14.86
2022-09-12T15:36:25.217Z,14.85
2022-09-12T15:38:53.759Z,14.87
2022-09-12T15:41:24.380Z,14.87
2022-09-12T15:43:51.874Z,14.82
2022-09-12T15:46:19.914Z,14.79
2022-09-12T15:48:47.531Z,14.78
2022-09-12T15:51:17.776Z,14.84
2022-09-12T15:53:46.190Z,14.76
2022-09-12T15:56:18.883Z,14.73
2022-09-12T15:58:58.354Z,14.65
2022-09-12T16:01:28.285Z,14.59
2022-09-12T16:03:56.612Z,14.55
2022-09-12T16:06:24.240Z,14.55
2022-09-12T16:08:51.870Z,14.54
2022-09-12T16:11:23.458Z,14.55
2022-09-12T16:13:53.250Z,14.50
2022-09-12T16:16:21.220Z,14.42
2022-09-12T16:18:49.272Z,14.36
2022-09-12T16:21:16.784Z,14.30
2022-09-12T16:23:45.121Z,14.33
2022-09-12T16:26:12.752Z,14.29
2022-09-12T16:28:40.958Z,14.27
2022-09-12T16:31:11.708Z,14.24
2022-09-12T16:33:40.130Z,14.23
2022-09-12T16:36:10.861Z,14.23
2022-09-12T16:38:43.118Z,14.22
2022-09-12T16:41:11.853Z,14.09
2022-09-12T16:43:40.682Z,14.04
2022-09-12T16:46:11.897Z,14.05
2022-09-12T16:48:52.795Z,14.11
2022-09-12T16:51:24.074Z,13.91
2022-09-12T16:53:54.281Z,13.76
2022-09-12T16:56:21.955Z,13.68
2022-09-12T16:58:49.744Z,13.63
2022-09-12T17:01:20.483Z,13.65
2022-09-12T17:03:49.005Z,13.52
2022-09-12T17:06:18.698Z,13.54
2022-09-12T17:08:49.918Z,13.53
2022-09-12T17:11:19.449Z,13.41
2022-09-12T17:14:03.917Z,13.41
2022-09-12T17:16:36.929Z,13.47
2022-09-12T17:19:05.819Z,13.37
2022-09-12T17:21:34.028Z,13.35
2022-09-12T17:24:01.887Z,13.32
2022-09-12T17:26:29.520Z,13.33
2022-09-12T17:28:57.124Z,13.34
2022-09-12T17:31:24.866Z,13.33
2022-09-12T17:33:57.520Z,13.46
2022-09-12T17:36:25.890Z,13.43
2022-09-12T17:38:54.485Z,13.40
2022-09-12T17:41:24.449Z,13.45
2022-09-12T17:43:57.603Z,13.60
2022-09-12T17:46:32.000Z,13.58
2022-09-12T17:49:01.270Z,13.51
2022-09-12T17:51:30.995Z,13.53
2022-09-12T17:54:08.596Z,13.63
2022-09-12T17:56:37.839Z,13.53
2022-09-12T17:59:07.484Z,13.54
2022-09-12T18:01:53.845Z,13.47
2022-09-12T18:04:21.463Z,13.45
2022-09-12T18:06:49.502Z,13.44
2022-09-12T18:09:22.948Z,13.54
2022-09-12T18:11:50.649Z,13.57
2022-09-12T18:14:19.461Z,13.62
2022-09-12T18:16:47.811Z,13.58
2022-09-12T18:19:16.196Z,13.62
2022-09-12T18:21:44.227Z,13.61
2022-09-12T18:24:12.167Z,13.47
2022-09-12T18:26:39.930Z,13.46
2022-09-12T18:29:08.099Z,13.46
2022-09-12T18:31:36.220Z,13.49
2022-09-12T18:34:06.223Z,13.49
2022-09-12T18:36:33.690Z,13.45
2022-09-12T18:39:01.136Z,13.45
2022-09-12T18:41:29.237Z,13.43
2022-09-12T18:43:58.897Z,13.39
2022-09-12T18:46:27.766Z,13.29
2022-09-12T18:48:57.965Z,13.23
2022-09-12T18:51:31.767Z,13.28
2022-09-12T18:54:01.913Z,13.30
2022-09-12T18:56:33.263Z,13.24
2022-09-12T18:59:03.105Z,13.22
2022-09-12T19:01:33.176Z,13.22
2022-09-12T19:04:04.915Z,13.13
2022-09-12T19:06:36.520Z,13.12
2022-09-12T19:09:07.836Z,13.02
2022-09-12T19:11:38.145Z,13.09
2022-09-12T19:14:07.747Z,13.08
2022-09-12T19:16:36.126Z,13.04
2022-09-12T19:19:03.956Z,13.01
2022-09-12T19:21:33.206Z,13.05
2022-09-12T19:24:03.771Z,13.09
2022-09-12T19:26:31.243Z,12.99
2022-09-12T19:28:59.084Z,13.00
2022-09-12T19:31:26.750Z,12.95
2022-09-12T19:33:58.840Z,12.93
2022-09-12T19:36:45.268Z,12.87
2022-09-12T19:39:14.723Z,12.90
2022-09-12T19:41:42.801Z,12.83
2022-09-12T19:44:10.310Z,12.77
2022-09-12T19:46:37.956Z,12.73
2022-09-12T19:49:05.506Z,12.75
2022-09-12T19:51:32.923Z,12.74
2022-09-12T19:54:00.430Z,12.72
2022-09-12T19:56:27.844Z,12.71
2022-09-12T19:58:56.876Z,12.65
2022-09-12T20:01:28.799Z,12.65
2022-09-12T20:03:57.833Z,12.58
2022-09-12T20:06:26.296Z,12.53
2022-09-12T20:08:54.559Z,12.46
2022-09-12T20:11:23.949Z,12.40
2022-09-12T20:13:52.105Z,12.42
2022-09-12T20:16:23.086Z,12.42
2022-09-12T20:18:59.169Z,12.42
2022-09-12T20:21:32.097Z,12.34
2022-09-12T20:24:08.298Z,12.36
2022-09-12T20:26:36.397Z,12.18
2022-09-12T20:29:05.570Z,12.13
2022-09-12T20:31:33.878Z,12.10
2022-09-12T20:34:01.384Z,11.99
2022-09-12T20:36:29.134Z,11.97
2022-09-12T20:38:59.080Z,11.98
2022-09-12T20:41:28.747Z,12.00
2022-09-12T20:43:57.350Z,11.96
2022-09-12T20:46:27.003Z,11.95
2022-09-12T20:48:55.370Z,11.86
2022-09-12T20:51:24.873Z,11.91
2022-09-12T20:53:56.519Z,11.98
2022-09-12T20:56:26.873Z,11.84
2022-09-12T20:58:57.815Z,11.89
2022-09-12T21:01:27.320Z,11.78
2022-09-12T21:03:54.952Z,11.67
2022-09-12T21:06:22.632Z,11.68
2022-09-12T21:08:50.958Z,11.64
2022-09-12T21:11:20.465Z,11.65
2022-09-12T21:13:48.046Z,11.57
2022-09-12T21:16:18.231Z,11.55
2022-09-12T21:18:46.451Z,11.43
2022-09-12T21:21:16.098Z,11.49
2022-09-12T21:23:43.592Z,11.43
2022-09-12T21:26:11.255Z,11.37
2022-09-12T21:28:39.004Z,11.34
2022-09-12T21:31:06.595Z,11.31
2022-09-12T21:33:34.113Z,11.29
2022-09-12T21:36:03.848Z,11.27
2022-09-12T21:38:32.149Z,11.24
2022-09-12T21:41:08.138Z,11.31
2022-09-12T21:43:36.640Z,11.16
2022-09-12T21:46:05.724Z,11.15
2022-09-12T21:48:33.783Z,11.10
2022-09-12T21:51:01.505Z,11.06
2022-09-12T21:53:29.282Z,11.02
2022-09-12T21:56:01.624Z,11.13
2022-09-12T21:58:29.118Z,10.94
2022-09-12T22:00:56.746Z,10.96
2022-09-12T22:03:24.538Z,10.88
2022-09-12T22:05:59.504Z,11.06
2022-09-12T22:08:26.993Z,10.86
2022-09-12T22:10:58.902Z,10.93
2022-09-12T22:13:26.691Z,10.79
2022-09-12T22:15:54.189Z,10.76
2022-09-12T22:18:21.781Z,10.75
2022-09-12T22:20:49.139Z,10.68
2022-09-12T22:23:35.077Z,10.60
2022-09-12T22:26:03.392Z,10.61
2022-09-12T22:28:32.377Z,10.60
2022-09-12T22:31:00.004Z,10.56
2022-09-12T22:33:28.447Z,10.59
2022-09-12T22:35:55.852Z,10.50
2022-09-12T22:38:23.296Z,10.51
2022-09-12T22:40:50.735Z,10.45
2022-09-12T22:43:18.182Z,10.47
2022-09-12T22:45:45.582Z,10.41
2022-09-12T22:48:13.025Z,10.41
2022-09-12T22:50:40.572Z,10.39
2022-09-12T22:53:09.174Z,10.36
2022-09-12T22:55:36.662Z,10.33
2022-09-12T22:58:04.102Z,10.34
2022-09-12T23:00:31.680Z,10.30
2022-09-12T23:02:59.241Z,10.23
2022-09-12T23:05:26.691Z,10.24
2022-09-12T23:07:54.703Z,10.24
2022-09-12T23:10:22.677Z,10.23
2022-09-12T23:12:50.471Z,10.22
2022-09-12T23:15:17.795Z,10.20
2022-09-12T23:17:45.218Z,10.17
2022-09-12T23:20:13.066Z,10.15
2022-09-12T23:22:40.490Z,10.15
2022-09-12T23:25:08.541Z,10.14
2022-09-12T23:27:36.104Z,10.12
2022-09-12T23:30:03.686Z,10.09
2022-09-12T23:32:31.890Z,10.09
2022-09-12T23:34:59.362Z,10.06
2022-09-12T23:37:27.203Z,10.07
2022-09-12T23:39:54.551Z,10.06
2022-09-12T23:42:22.082Z,10.06
2022-09-12T23:44:49.526Z,10.00
2022-09-12T23:47:18.770Z,10.00
2022-09-12T23:49:46.110Z,9.97
2022-09-12T23:52:13.483Z,9.97
2022-09-12T23:54:40.943Z,9.89
2022-09-12T23:57:08.411Z,9.96
2022-09-12T23:59:35.899Z,9.94
